Time;durP1;ratioP1;P1;durP2;ratioP2;P2;SDS_P1;SDS_P2;PMS_P1;PMS_P2;Temp;Humidity;BMP_temperature;BMP_pressure;BME280_temperature;BME280_humidity;BME280_pressure;Samples;Min_cycle;Max_cycle;Signal;HPM_P1;HPM_P2
2021/01/07 00:01:09;;;;;;;9.00;5.20;;;;;;;;;;5058221;28;20886;-73
2021/01/07 00:03:39;;;;;;;8.10;5.83;;;;;;;;;;5057970;28;20766;-73
2021/01/07 00:06:07;;;;;;;8.67;5.30;;;;;;;;;;5058440;28;20465;-73
2021/01/07 00:08:35;;;;;;;10.23;5.30;;;;;;;;;;5057948;28;20450;-73
2021/01/07 00:11:03;;;;;;;8.63;5.40;;;;;;;;;;5058264;28;20462;-73
2021/01/07 00:13:31;;;;;;;9.17;5.43;;;;;;;;;;5057049;28;20541;-73
2021/01/07 00:15:58;;;;;;;7.77;4.50;;;;;;;;;;5057941;28;20458;-73
2021/01/07 00:18:26;;;;;;;8.43;5.10;;;;;;;;;;5058092;28;20454;-73
2021/01/07 00:20:54;;;;;;;7.90;5.70;;;;;;;;;;5057513;28;20458;-73
2021/01/07 00:23:22;;;;;;;7.63;4.70;;;;;;;;;;5057287;28;20956;-73
2021/01/07 00:25:50;;;;;;;7.50;4.90;;;;;;;;;;5056750;28;20567;-73
2021/01/07 00:28:18;;;;;;;8.17;4.40;;;;;;;;;;5057247;28;20519;-73
2021/01/07 00:30:46;;;;;;;10.03;5.37;;;;;;;;;;5057194;28;20461;-72
2021/01/07 00:33:15;;;;;;;7.90;5.10;;;;;;;;;;5056865;28;20457;-72
2021/01/07 00:35:43;;;;;;;8.07;4.33;;;;;;;;;;5057496;28;20874;-72
2021/01/07 00:38:12;;;;;;;7.97;5.40;;;;;;;;;;5057622;28;20855;-73
2021/01/07 00:40:39;;;;;;;8.93;4.93;;;;;;;;;;5057669;28;20469;-73
2021/01/07 00:43:06;;;;;;;7.70;4.60;;;;;;;;;;5056874;28;20555;-73
2021/01/07 00:45:35;;;;;;;10.93;6.13;;;;;;;;;;5057530;28;20534;-73
2021/01/07 00:48:03;;;;;;;7.80;4.60;;;;;;;;;;5057433;28;20449;-73
2021/01/07 00:50:30;;;;;;;7.70;5.00;;;;;;;;;;5057362;28;20461;-73
2021/01/07 00:52:57;;;;;;;6.60;4.50;;;;;;;;;;5057560;28;20516;-73
2021/01/07 00:55:26;;;;;;;9.17;5.20;;;;;;;;;;5057411;28;20537;-73
2021/01/07 00:57:53;;;;;;;7.57;5.00;;;;;;;;;;5056801;28;20536;-73
2021/01/07 01:00:21;;;;;;;8.03;4.87;;;;;;;;;;5057350;28;20458;-74
2021/01/07 01:02:48;;;;;;;7.20;4.93;;;;;;;;;;5057183;28;20485;-73
2021/01/07 01:05:16;;;;;;;8.57;5.07;;;;;;;;;;5056411;28;20458;-73
2021/01/07 01:07:43;;;;;;;7.20;4.50;;;;;;;;;;5057149;28;20450;-74
2021/01/07 01:10:12;;;;;;;8.07;5.00;;;;;;;;;;5057257;28;20489;-73
2021/01/07 01:12:40;;;;;;;8.37;4.93;;;;;;;;;;5056672;28;20523;-73
2021/01/07 01:15:09;;;;;;;9.10;5.50;;;;;;;;;;5056861;28;20454;-73
2021/01/07 01:17:37;;;;;;;9.00;4.73;;;;;;;;;;5056948;28;20449;-73
2021/01/07 01:20:06;;;;;;;7.73;4.50;;;;;;;;;;5056973;28;20512;-73
2021/01/07 01:22:33;;;;;;;8.60;5.00;;;;;;;;;;5043131;28;20517;-73
2021/01/07 01:25:01;;;;;;;7.90;4.87;;;;;;;;;;5053579;28;20458;-73
2021/01/07 01:27:29;;;;;;;7.77;5.57;;;;;;;;;;5056006;28;20485;-73
2021/01/07 01:29:58;;;;;;;8.30;4.93;;;;;;;;;;5056945;28;20526;-73
2021/01/07 01:32:25;;;;;;;7.47;4.70;;;;;;;;;;5055558;28;20457;-73
2021/01/07 01:34:54;;;;;;;6.90;4.10;;;;;;;;;;5056139;28;20577;-74
2021/01/07 01:37:21;;;;;;;10.03;6.00;;;;;;;;;;5056441;28;20465;-73
2021/01/07 01:39:48;;;;;;;8.30;4.93;;;;;;;;;;5056198;28;20446;-73
2021/01/07 01:42:25;;;;;;;7.60;4.33;;;;;;;;;;5056715;28;20516;-73
2021/01/07 01:44:52;;;;;;;8.40;4.50;;;;;;;;;;5056319;28;20453;-73
2021/01/07 01:47:21;;;;;;;6.63;4.27;;;;;;;;;;5056662;28;20715;-73
2021/01/07 01:49:50;;;;;;;8.57;4.80;;;;;;;;;;5057313;28;20882;-73
2021/01/07 01:52:18;;;;;;;7.77;4.67;;;;;;;;;;5054548;28;20534;-74
2021/01/07 01:54:46;;;;;;;6.27;4.20;;;;;;;;;;5060336;28;20882;-73
2021/01/07 01:57:14;;;;;;;9.37;4.27;;;;;;;;;;5060838;28;20542;-73
2021/01/07 01:59:41;;;;;;;6.03;3.93;;;;;;;;;;5060599;28;20504;-73
2021/01/07 02:02:12;;;;;;;11.30;5.50;;;;;;;;;;5060269;28;20983;-73
2021/01/07 02:04:43;;;;;;;9.20;5.20;;;;;;;;;;5060612;28;20472;-73
2021/01/07 02:07:11;;;;;;;8.30;5.07;;;;;;;;;;5060514;28;20912;-73
2021/01/07 02:09:39;;;;;;;7.50;3.90;;;;;;;;;;5060780;28;20454;-73
2021/01/07 02:12:07;;;;;;;7.47;4.10;;;;;;;;;;5059803;28;20489;-73
2021/01/07 02:14:39;;;;;;;7.83;4.50;;;;;;;;;;5060356;28;20732;-73
2021/01/07 02:17:07;;;;;;;9.83;5.00;;;;;;;;;;5060558;28;20545;-73
2021/01/07 02:19:34;;;;;;;7.20;4.17;;;;;;;;;;5059728;28;20889;-73
2021/01/07 02:22:03;;;;;;;6.40;3.93;;;;;;;;;;5059987;28;21032;-73
2021/01/07 02:24:31;;;;;;;9.23;4.60;;;;;;;;;;5060075;28;20499;-73
2021/01/07 02:27:00;;;;;;;8.97;4.67;;;;;;;;;;5060054;28;20564;-73
2021/01/07 02:29:27;;;;;;;7.10;3.67;;;;;;;;;;5060180;28;20472;-73
2021/01/07 02:31:55;;;;;;;9.07;4.60;;;;;;;;;;5059771;28;20450;-72
2021/01/07 02:34:22;;;;;;;7.40;4.73;;;;;;;;;;5060052;28;20462;-73
2021/01/07 02:36:50;;;;;;;9.87;5.10;;;;;;;;;;5059980;28;20461;-73
2021/01/07 02:39:18;;;;;;;6.43;4.27;;;;;;;;;;5059896;28;20458;-73
2021/01/07 02:41:50;;;;;;;7.30;4.33;;;;;;;;;;5059506;28;20457;-73
2021/01/07 02:44:17;;;;;;;9.57;4.67;;;;;;;;;;5059945;28;20485;-72
2021/01/07 02:46:45;;;;;;;7.17;4.33;;;;;;;;;;5059811;28;20457;-73
2021/01/07 02:49:12;;;;;;;7.90;4.73;;;;;;;;;;5060211;28;20461;-73
2021/01/07 02:51:39;;;;;;;8.43;3.97;;;;;;;;;;5059757;28;20861;-73
2021/01/07 02:54:07;;;;;;;7.43;4.30;;;;;;;;;;5059075;28;20466;-73
2021/01/07 02:56:35;;;;;;;7.07;3.97;;;;;;;;;;5059701;28;20495;-73
2021/01/07 02:59:03;;;;;;;8.50;4.23;;;;;;;;;;5058773;28;20765;-73
2021/01/07 03:01:32;;;;;;;8.57;4.43;;;;;;;;;;5059418;28;20839;-73
2021/01/07 03:03:59;;;;;;;8.63;4.30;;;;;;;;;;5059164;28;20485;-73
2021/01/07 03:06:27;;;;;;;6.70;4.10;;;;;;;;;;5058836;28;20462;-73
2021/01/07 03:08:54;;;;;;;7.53;3.37;;;;;;;;;;5057691;28;20854;-73
2021/01/07 03:11:21;;;;;;;6.47;3.80;;;;;;;;;;5058836;28;20937;-73
2021/01/07 03:13:50;;;;;;;9.43;4.20;;;;;;;;;;5059104;28;20548;-73
2021/01/07 03:16:17;;;;;;;9.70;4.47;;;;;;;;;;5058999;28;20469;-73
2021/01/07 03:18:45;;;;;;;6.43;3.37;;;;;;;;;;5059123;28;20455;-73
2021/01/07 03:21:12;;;;;;;9.17;5.40;;;;;;;;;;5057728;28;20877;-73
2021/01/07 03:23:40;;;;;;;9.07;4.90;;;;;;;;;;5058984;28;20584;-73
2021/01/07 03:26:07;;;;;;;7.37;3.83;;;;;;;;;;5058326;28;20443;-73
2021/01/07 03:28:34;;;;;;;5.20;3.47;;;;;;;;;;5058032;28;20461;-73
2021/01/07 03:31:03;;;;;;;8.37;3.60;;;;;;;;;;5058970;28;20846;-73
2021/01/07 03:33:30;;;;;;;6.97;3.97;;;;;;;;;;5058385;28;20823;-73
2021/01/07 03:35:59;;;;;;;8.47;4.47;;;;;;;;;;5058640;28;20451;-73
2021/01/07 03:38:27;;;;;;;5.70;3.47;;;;;;;;;;5058250;28;20709;-73
2021/01/07 03:40:54;;;;;;;5.90;3.97;;;;;;;;;;5057988;28;20476;-73
2021/01/07 03:43:22;;;;;;;5.83;2.90;;;;;;;;;;5058240;28;20801;-73
2021/01/07 03:45:52;;;;;;;4.33;2.93;;;;;;;;;;5058413;28;20717;-73
2021/01/07 03:48:20;;;;;;;5.90;3.03;;;;;;;;;;5058147;28;20455;-73
2021/01/07 03:50:48;;;;;;;6.27;3.57;;;;;;;;;;5057868;28;20525;-73
2021/01/07 03:53:15;;;;;;;5.67;3.00;;;;;;;;;;5049664;28;20454;-73
2021/01/07 03:55:45;;;;;;;5.70;3.50;;;;;;;;;;5058013;28;20454;-73
2021/01/07 03:58:12;;;;;;;5.80;3.10;;;;;;;;;;5058131;28;20462;-74
2021/01/07 04:00:40;;;;;;;6.70;3.23;;;;;;;;;;5057811;28;20769;-73
2021/01/07 04:03:07;;;;;;;7.07;3.80;;;;;;;;;;5057979;28;20780;-73
2021/01/07 04:05:35;;;;;;;6.10;2.93;;;;;;;;;;5057757;28;20461;-73
2021/01/07 04:08:03;;;;;;;6.63;3.93;;;;;;;;;;5057561;28;20476;-74
2021/01/07 04:10:30;;;;;;;7.17;4.20;;;;;;;;;;5057668;28;20737;-74
2021/01/07 04:12:58;;;;;;;7.03;3.33;;;;;;;;;;5057232;28;20539;-74
2021/01/07 04:15:25;;;;;;;6.20;3.57;;;;;;;;;;5057558;28;20454;-74
2021/01/07 04:17:53;;;;;;;6.30;3.70;;;;;;;;;;5057364;28;20492;-74
2021/01/07 04:20:20;;;;;;;7.57;3.67;;;;;;;;;;5057025;28;20461;-74
2021/01/07 04:22:49;;;;;;;7.40;3.97;;;;;;;;;;5057343;28;20580;-74
2021/01/07 04:25:16;;;;;;;7.37;3.47;;;;;;;;;;5056177;28;20447;-74
2021/01/07 04:27:43;;;;;;;7.70;4.10;;;;;;;;;;5057779;28;20470;-74
2021/01/07 04:30:11;;;;;;;7.80;3.90;;;;;;;;;;5057154;28;20738;-74
2021/01/07 04:32:39;;;;;;;5.57;2.77;;;;;;;;;;5056713;28;20458;-74
2021/01/07 04:35:07;;;;;;;6.00;2.50;;;;;;;;;;5056349;28;20741;-74
2021/01/07 04:37:34;;;;;;;6.00;3.13;;;;;;;;;;5057419;28;20531;-74
2021/01/07 04:40:02;;;;;;;6.27;2.97;;;;;;;;;;5057645;28;21021;-74
2021/01/07 04:42:30;;;;;;;5.33;2.83;;;;;;;;;;5056970;28;20486;-74
2021/01/07 04:44:58;;;;;;;6.27;2.97;;;;;;;;;;5057121;28;20450;-74
2021/01/07 04:47:25;;;;;;;5.93;2.93;;;;;;;;;;5056693;28;20745;-75
2021/01/07 04:49:53;;;;;;;4.60;2.90;;;;;;;;;;5037083;28;20852;-74
2021/01/07 04:52:21;;;;;;;6.77;2.90;;;;;;;;;;5037222;28;20466;-74
2021/01/07 04:54:48;;;;;;;5.10;2.30;;;;;;;;;;5036689;28;20901;-74
2021/01/07 04:57:17;;;;;;;6.10;3.37;;;;;;;;;;5055554;28;20747;-74
2021/01/07 04:59:44;;;;;;;4.77;2.70;;;;;;;;;;5056222;28;20456;-74
2021/01/07 05:02:14;;;;;;;4.70;2.60;;;;;;;;;;5056480;28;20462;-74
2021/01/07 05:04:48;;;;;;;5.53;2.50;;;;;;;;;;5056551;28;20481;-74
2021/01/07 05:07:17;;;;;;;5.30;3.10;;;;;;;;;;5057140;28;20488;-74
2021/01/07 05:09:47;;;;;;;5.27;2.73;;;;;;;;;;5056688;28;20763;-74
2021/01/07 05:12:16;;;;;;;7.33;2.57;;;;;;;;;;5047570;28;20481;-74
2021/01/07 05:14:44;;;;;;;5.33;3.20;;;;;;;;;;5055474;28;20453;-73
2021/01/07 05:17:17;;;;;;;7.43;2.97;;;;;;;;;;5052523;28;20760;-74
2021/01/07 05:19:44;;;;;;;5.13;2.13;;;;;;;;;;5056496;28;20758;-74
2021/01/07 05:22:12;;;;;;;5.13;2.43;;;;;;;;;;5056344;28;20562;-74
2021/01/07 05:24:40;;;;;;;5.90;2.93;;;;;;;;;;5056316;28;20526;-74
2021/01/07 05:27:08;;;;;;;4.17;2.00;;;;;;;;;;5056686;28;20477;-74
2021/01/07 05:29:36;;;;;;;4.20;2.60;;;;;;;;;;5055634;28;20541;-74
2021/01/07 05:32:04;;;;;;;5.53;3.00;;;;;;;;;;5056559;28;20462;-74
2021/01/07 05:34:31;;;;;;;5.93;3.40;;;;;;;;;;5056663;28;20442;-74
2021/01/07 05:36:59;;;;;;;4.60;2.47;;;;;;;;;;5056924;28;20458;-74
2021/01/07 05:39:34;;;;;;;6.30;2.93;;;;;;;;;;5056753;28;20500;-74
2021/01/07 05:42:02;;;;;;;7.47;3.80;;;;;;;;;;5056535;28;20472;-74
2021/01/07 05:44:33;;;;;;;4.93;2.83;;;;;;;;;;5056450;28;20756;-74
2021/01/07 05:47:01;;;;;;;5.40;3.10;;;;;;;;;;5056832;28;20500;-74
2021/01/07 05:49:38;;;;;;;4.67;2.97;;;;;;;;;;5056294;28;20460;-74
2021/01/07 05:52:07;;;;;;;3.80;2.23;;;;;;;;;;5056535;28;20461;-74
2021/01/07 05:54:35;;;;;;;4.17;2.37;;;;;;;;;;5056591;28;20486;-74
2021/01/07 05:57:03;;;;;;;5.50;2.43;;;;;;;;;;5056224;28;20830;-74
2021/01/07 05:59:33;;;;;;;5.33;2.67;;;;;;;;;;5057289;28;20462;-74
2021/01/07 06:02:03;;;;;;;4.87;2.40;;;;;;;;;;5050954;28;20482;-74
2021/01/07 06:04:34;;;;;;;4.67;2.57;;;;;;;;;;5055228;28;20486;-74
2021/01/07 06:07:01;;;;;;;5.37;2.53;;;;;;;;;;5055525;28;20816;-74
2021/01/07 06:09:30;;;;;;;4.37;2.20;;;;;;;;;;5055504;28;20468;-74
2021/01/07 06:11:59;;;;;;;3.97;2.70;;;;;;;;;;5055243;28;20488;-74
2021/01/07 06:14:29;;;;;;;5.13;2.60;;;;;;;;;;5054497;28;20457;-74
2021/01/07 06:16:57;;;;;;;5.57;2.53;;;;;;;;;;5052379;28;20450;-73
2021/01/07 06:19:36;;;;;;;7.97;2.20;;;;;;;;;;5034620;28;20453;-73
2021/01/07 06:22:08;;;;;;;5.47;2.80;;;;;;;;;;5034732;28;20470;-73
2021/01/07 06:24:37;;;;;;;4.70;2.37;;;;;;;;;;5035891;28;20489;-74
2021/01/07 06:27:20;;;;;;;5.63;2.10;;;;;;;;;;5036518;28;20541;-74
2021/01/07 06:29:48;;;;;;;4.57;2.07;;;;;;;;;;5036488;28;20732;-74
2021/01/07 06:32:16;;;;;;;4.57;2.90;;;;;;;;;;5036461;28;20669;-73
2021/01/07 06:34:45;;;;;;;5.13;3.30;;;;;;;;;;5036770;28;20443;-74
2021/01/07 06:37:13;;;;;;;6.47;3.40;;;;;;;;;;5037833;28;20465;-74
2021/01/07 06:39:44;;;;;;;6.27;3.00;;;;;;;;;;5052868;28;20446;-74
2021/01/07 06:42:19;;;;;;;8.23;3.77;;;;;;;;;;5059423;28;20465;-74
2021/01/07 06:44:47;;;;;;;5.07;3.00;;;;;;;;;;5059381;28;20452;-74
2021/01/07 06:47:21;;;;;;;3.50;2.00;;;;;;;;;;5059873;28;20556;-74
2021/01/07 06:49:50;;;;;;;4.80;2.70;;;;;;;;;;5058876;28;20743;-74
2021/01/07 06:52:21;;;;;;;5.57;2.60;;;;;;;;;;5050167;28;20522;-74
2021/01/07 06:54:49;;;;;;;4.70;3.03;;;;;;;;;;5054110;28;20493;-73
2021/01/07 06:57:17;;;;;;;4.00;2.20;;;;;;;;;;5047707;28;20457;-74
2021/01/07 06:59:55;;;;;;;4.67;2.33;;;;;;;;;;5058115;28;20485;-74
2021/01/07 07:02:22;;;;;;;4.27;2.00;;;;;;;;;;5058394;28;20885;-74
2021/01/07 07:04:58;;;;;;;5.13;2.20;;;;;;;;;;5058582;28;20462;-74
2021/01/07 07:07:48;;;;;;;4.07;2.40;;;;;;;;;;5058133;28;20894;-74
2021/01/07 07:10:35;;;;;;;4.20;2.37;;;;;;;;;;5058017;28;20520;-74
2021/01/07 07:13:15;;;;;;;3.97;1.53;;;;;;;;;;5024704;28;20551;-74
2021/01/07 07:15:42;;;;;;;4.40;2.43;;;;;;;;;;5057635;28;20445;-74
2021/01/07 07:18:12;;;;;;;5.27;2.23;;;;;;;;;;5058316;28;20735;-74
2021/01/07 07:20:42;;;;;;;4.30;2.80;;;;;;;;;;5057264;28;20481;-74
2021/01/07 07:23:14;;;;;;;4.80;2.57;;;;;;;;;;5058218;28;20941;-73
2021/01/07 07:25:42;;;;;;;4.90;1.70;;;;;;;;;;5056969;28;20450;-74
2021/01/07 07:28:11;;;;;;;3.20;1.83;;;;;;;;;;5055655;28;20746;-74
2021/01/07 07:30:44;;;;;;;5.30;2.37;;;;;;;;;;5058562;28;20454;-74
2021/01/07 07:33:11;;;;;;;3.73;1.70;;;;;;;;;;5058072;28;20468;-74
2021/01/07 07:35:44;;;;;;;2.90;1.53;;;;;;;;;;5058305;28;20461;-74
2021/01/07 07:38:14;;;;;;;2.70;1.60;;;;;;;;;;5058331;28;20449;-73
2021/01/07 07:40:45;;;;;;;3.43;2.10;;;;;;;;;;5058290;28;20701;-75
2021/01/07 07:43:13;;;;;;;5.80;2.17;;;;;;;;;;5057749;28;20496;-74
2021/01/07 07:45:40;;;;;;;2.90;2.10;;;;;;;;;;5057222;28;20450;-74
2021/01/07 07:48:09;;;;;;;4.50;2.50;;;;;;;;;;5056520;28;20462;-74
2021/01/07 07:50:36;;;;;;;3.13;1.73;;;;;;;;;;5057102;28;20519;-74
2021/01/07 07:53:08;;;;;;;3.23;1.73;;;;;;;;;;5056550;28;20481;-74
2021/01/07 07:55:35;;;;;;;4.43;1.90;;;;;;;;;;5058577;28;20505;-74
2021/01/07 07:58:09;;;;;;;3.57;1.77;;;;;;;;;;5058005;28;20475;-74
2021/01/07 08:00:40;;;;;;;3.10;1.83;;;;;;;;;;5056745;28;20514;-74
2021/01/07 08:03:07;;;;;;;3.00;1.67;;;;;;;;;;5056518;28;20489;-74
2021/01/07 08:05:37;;;;;;;3.40;1.50;;;;;;;;;;5056718;28;20446;-73
2021/01/07 08:08:05;;;;;;;4.17;1.50;;;;;;;;;;5056507;28;20876;-73
2021/01/07 08:10:35;;;;;;;2.43;1.70;;;;;;;;;;5057062;28;20544;-73
2021/01/07 08:13:02;;;;;;;3.50;1.70;;;;;;;;;;5056280;28;20462;-73
2021/01/07 08:15:30;;;;;;;3.77;1.90;;;;;;;;;;5055634;28;20489;-74
2021/01/07 08:18:14;;;;;;;4.80;2.03;;;;;;;;;;5055788;28;20464;-73
2021/01/07 08:20:41;;;;;;;2.60;1.20;;;;;;;;;;5056296;28;20442;-73
2021/01/07 08:23:10;;;;;;;2.87;1.53;;;;;;;;;;5057076;28;20486;-74
2021/01/07 08:25:38;;;;;;;3.07;2.03;;;;;;;;;;5056871;28;20552;-73
2021/01/07 08:28:10;;;;;;;4.50;1.93;;;;;;;;;;5056155;28;20473;-73
2021/01/07 08:30:39;;;;;;;3.80;1.77;;;;;;;;;;5056447;28;20526;-73
2021/01/07 08:33:06;;;;;;;2.53;1.30;;;;;;;;;;5056067;28;20454;-74
2021/01/07 08:35:35;;;;;;;3.27;1.60;;;;;;;;;;5055890;28;20468;-77
2021/01/07 08:38:03;;;;;;;3.70;1.77;;;;;;;;;;5055942;28;20501;-73
2021/01/07 08:40:31;;;;;;;3.77;2.23;;;;;;;;;;5055520;28;20540;-74
2021/01/07 08:43:11;;;;;;;2.37;1.60;;;;;;;;;;5065141;28;20485;-74
2021/01/07 08:45:46;;;;;;;3.00;1.93;;;;;;;;;;5076017;28;20514;-74
2021/01/07 08:48:14;;;;;;;3.33;1.60;;;;;;;;;;5075315;28;20756;-74
2021/01/07 08:50:45;;;;;;;2.43;1.30;;;;;;;;;;5075322;28;20460;-74
2021/01/07 08:53:14;;;;;;;2.37;1.40;;;;;;;;;;5074756;28;20539;-74
2021/01/07 08:56:00;;;;;;;2.67;1.43;;;;;;;;;;5075163;28;20453;-74
2021/01/07 08:58:29;;;;;;;10.07;3.13;;;;;;;;;;5050663;28;20466;-74
2021/01/07 09:01:05;;;;;;;5.20;2.90;;;;;;;;;;5056258;28;20464;-74
2021/01/07 09:03:37;;;;;;;3.93;1.97;;;;;;;;;;5054888;28;20490;-74
2021/01/07 09:06:08;;;;;;;3.40;1.50;;;;;;;;;;5054300;28;20454;-75
2021/01/07 09:08:35;;;;;;;3.07;1.73;;;;;;;;;;5054753;28;20751;-74
2021/01/07 09:11:09;;;;;;;3.77;2.10;;;;;;;;;;5054520;28;20458;-74
2021/01/07 09:13:45;;;;;;;3.27;2.07;;;;;;;;;;5055586;28;20457;-73
2021/01/07 09:16:19;;;;;;;3.20;1.97;;;;;;;;;;5055632;28;20584;-73
2021/01/07 09:18:46;;;;;;;3.50;2.20;;;;;;;;;;5053257;28;20462;-75
2021/01/07 09:21:26;;;;;;;3.30;2.40;;;;;;;;;;5054003;28;20489;-72
2021/01/07 09:24:04;;;;;;;4.43;1.83;;;;;;;;;;5051435;28;20620;-73
2021/01/07 09:26:45;;;;;;;3.00;1.80;;;;;;;;;;5054375;28;20449;-73
2021/01/07 09:29:14;;;;;;;3.37;1.93;;;;;;;;;;5053881;28;20469;-73
2021/01/07 09:31:43;;;;;;;4.13;2.30;;;;;;;;;;5053976;28;20559;-74
2021/01/07 09:34:10;;;;;;;2.80;1.80;;;;;;;;;;5054681;28;20607;-74
2021/01/07 09:36:38;;;;;;;2.60;1.30;;;;;;;;;;5054015;28;20511;-74
2021/01/07 09:39:06;;;;;;;3.30;1.80;;;;;;;;;;5054133;28;20477;-74
2021/01/07 09:41:33;;;;;;;4.47;2.00;;;;;;;;;;5055473;28;20486;-73
2021/01/07 09:44:01;;;;;;;3.27;1.60;;;;;;;;;;5050634;28;20474;-74
2021/01/07 09:46:30;;;;;;;3.53;1.80;;;;;;;;;;5035227;28;20469;-73
2021/01/07 09:48:57;;;;;;;3.27;1.90;;;;;;;;;;5035092;28;20938;-74
2021/01/07 09:51:24;;;;;;;4.50;2.27;;;;;;;;;;5042241;28;20531;-73
2021/01/07 09:53:52;;;;;;;3.50;2.07;;;;;;;;;;5054709;28;20456;-73
2021/01/07 09:56:19;;;;;;;4.57;2.60;;;;;;;;;;5055377;28;20462;-72
2021/01/07 09:58:46;;;;;;;4.60;2.20;;;;;;;;;;5053713;28;20874;-72
2021/01/07 10:01:14;;;;;;;4.63;2.07;;;;;;;;;;5054325;28;20484;-72
2021/01/07 10:03:43;;;;;;;2.70;1.50;;;;;;;;;;5038998;28;20495;-72
2021/01/07 10:06:10;;;;;;;5.13;2.10;;;;;;;;;;5034330;28;20958;-73
2021/01/07 10:08:37;;;;;;;3.33;1.83;;;;;;;;;;5052706;28;20850;-72
2021/01/07 10:11:08;;;;;;;4.70;1.97;;;;;;;;;;5065085;28;20523;-73
2021/01/07 10:13:36;;;;;;;3.33;1.43;;;;;;;;;;5078635;28;20456;-72
2021/01/07 10:16:03;;;;;;;4.50;2.03;;;;;;;;;;5079092;28;20468;-73
2021/01/07 10:18:33;;;;;;;3.43;1.60;;;;;;;;;;5079163;28;20440;-72
2021/01/07 10:21:02;;;;;;;4.20;2.30;;;;;;;;;;5080932;28;21043;-73
2021/01/07 10:23:33;;;;;;;4.00;1.90;;;;;;;;;;5070247;28;20482;-73
2021/01/07 10:26:00;;;;;;;5.00;2.10;;;;;;;;;;5057884;28;20727;-73
2021/01/07 10:28:28;;;;;;;3.90;2.30;;;;;;;;;;5072436;28;20919;-73
2021/01/07 10:30:57;;;;;;;4.60;2.30;;;;;;;;;;5067170;28;20461;-73
2021/01/07 10:33:27;;;;;;;4.00;2.23;;;;;;;;;;5038346;28;20447;-73
2021/01/07 10:35:55;;;;;;;3.63;2.23;;;;;;;;;;5038173;28;20652;-73
2021/01/07 10:38:24;;;;;;;3.77;2.10;;;;;;;;;;5050006;28;20460;-73
2021/01/07 10:40:52;;;;;;;5.10;2.10;;;;;;;;;;5058243;28;20457;-73
2021/01/07 10:43:23;;;;;;;4.27;2.97;;;;;;;;;;5057714;28;20482;-73
2021/01/07 10:45:54;;;;;;;4.30;1.97;;;;;;;;;;5057306;28;20461;-73
2021/01/07 10:48:25;;;;;;;4.00;2.50;;;;;;;;;;5056349;28;20493;-73
2021/01/07 10:50:52;;;;;;;11.93;2.70;;;;;;;;;;5058856;28;20803;-73
2021/01/07 10:53:50;;;;;;;3.70;2.40;;;;;;;;;;5057421;28;20457;-73
2021/01/07 10:56:25;;;;;;;3.93;2.40;;;;;;;;;;4996375;28;20455;-73
2021/01/07 10:59:16;;;;;;;4.47;2.50;;;;;;;;;;5047200;28;20523;-73
2021/01/07 11:01:48;;;;;;;3.70;2.80;;;;;;;;;;5043564;28;20713;-73
2021/01/07 11:04:26;;;;;;;11.03;3.37;;;;;;;;;;5057690;28;20486;-73
2021/01/07 11:06:59;;;;;;;3.33;1.97;;;;;;;;;;5057120;28;20877;-73
2021/01/07 11:09:32;;;;;;;3.57;2.47;;;;;;;;;;5057635;28;20971;-73
2021/01/07 11:12:04;;;;;;;4.30;2.97;;;;;;;;;;5057708;28;20564;-73
2021/01/07 11:14:38;;;;;;;3.90;2.57;;;;;;;;;;5058621;28;20835;-72
2021/01/07 11:17:07;;;;;;;3.83;2.00;;;;;;;;;;5058630;28;20529;-72
2021/01/07 11:19:36;;;;;;;3.60;2.60;;;;;;;;;;5054651;28;20460;-73
2021/01/07 11:22:11;;;;;;;3.60;2.20;;;;;;;;;;5056638;28;20458;-72
2021/01/07 11:24:39;;;;;;;3.80;2.80;;;;;;;;;;5057110;28;20550;-72
2021/01/07 11:27:08;;;;;;;4.63;3.17;;;;;;;;;;5052297;28;20474;-72
2021/01/07 11:29:37;;;;;;;3.97;3.00;;;;;;;;;;5058279;28;20564;-73
2021/01/07 11:32:05;;;;;;;4.67;2.43;;;;;;;;;;5054771;28;20453;-72
2021/01/07 11:34:33;;;;;;;4.47;2.60;;;;;;;;;;5055203;28;20870;-72
2021/01/07 11:37:07;;;;;;;3.20;2.60;;;;;;;;;;5047827;28;20459;-72
2021/01/07 11:39:42;;;;;;;3.80;2.37;;;;;;;;;;5036300;28;20875;-72
2021/01/07 11:42:16;;;;;;;4.47;3.00;;;;;;;;;;5048701;28;20449;-73
2021/01/07 11:44:49;;;;;;;3.20;2.80;;;;;;;;;;5059780;28;20493;-73
2021/01/07 11:47:18;;;;;;;4.40;2.73;;;;;;;;;;5061332;28;20450;-73
2021/01/07 11:49:49;;;;;;;5.30;2.50;;;;;;;;;;5055865;28;20469;-72
2021/01/07 11:52:17;;;;;;;5.47;2.83;;;;;;;;;;5056255;28;20889;-73
2021/01/07 11:54:47;;;;;;;4.07;2.70;;;;;;;;;;5056439;28;20462;-73
2021/01/07 11:57:17;;;;;;;4.50;2.60;;;;;;;;;;5056101;28;20536;-73
2021/01/07 11:59:45;;;;;;;6.33;4.10;;;;;;;;;;5055347;28;20504;-73
2021/01/07 12:02:13;;;;;;;7.00;3.90;;;;;;;;;;5055349;28;20450;-73
2021/01/07 12:04:43;;;;;;;5.43;2.80;;;;;;;;;;5054950;28;20568;-73
2021/01/07 12:07:25;;;;;;;7.07;4.30;;;;;;;;;;5054862;28;20465;-72
2021/01/07 12:09:54;;;;;;;12.33;7.83;;;;;;;;;;5055535;28;20858;-73
2021/01/07 12:12:24;;;;;;;10.53;6.93;;;;;;;;;;5055118;28;20450;-72
2021/01/07 12:14:53;;;;;;;7.80;3.97;;;;;;;;;;5054153;28;20878;-73
2021/01/07 12:17:21;;;;;;;7.37;3.10;;;;;;;;;;5055771;28;20450;-73
2021/01/07 12:19:53;;;;;;;4.10;2.20;;;;;;;;;;5054430;28;20461;-72
2021/01/07 12:22:21;;;;;;;5.57;3.30;;;;;;;;;;5055630;28;20446;-73
2021/01/07 12:24:55;;;;;;;4.23;2.70;;;;;;;;;;5054451;28;21011;-73
2021/01/07 12:27:24;;;;;;;8.13;4.00;;;;;;;;;;5055022;28;20875;-71
2021/01/07 12:29:52;;;;;;;5.17;3.90;;;;;;;;;;5055268;28;20465;-74
2021/01/07 12:32:27;;;;;;;6.60;4.20;;;;;;;;;;5055462;28;20452;-74
2021/01/07 12:35:07;;;;;;;6.10;3.77;;;;;;;;;;5055277;28;20461;-72
2021/01/07 12:37:43;;;;;;;3.40;2.20;;;;;;;;;;5055494;28;20449;-73
2021/01/07 12:40:11;;;;;;;3.50;2.70;;;;;;;;;;5050780;28;20447;-73
2021/01/07 12:42:43;;;;;;;3.40;1.83;;;;;;;;;;5053679;28;20466;-72
2021/01/07 12:45:12;;;;;;;4.13;2.67;;;;;;;;;;5056537;28;20485;-72
2021/01/07 12:47:40;;;;;;;4.40;3.13;;;;;;;;;;5056513;28;20862;-72
2021/01/07 12:50:08;;;;;;;4.77;2.70;;;;;;;;;;5055228;28;21044;-73
2021/01/07 12:52:36;;;;;;;6.50;4.40;;;;;;;;;;5053412;28;20450;-73
2021/01/07 12:55:08;;;;;;;5.37;3.20;;;;;;;;;;5054284;28;20466;-76
2021/01/07 12:57:41;;;;;;;4.80;2.90;;;;;;;;;;5045318;28;20450;-73
2021/01/07 13:00:20;;;;;;;5.20;2.93;;;;;;;;;;5050077;28;20532;-73
2021/01/07 13:02:55;;;;;;;5.23;2.70;;;;;;;;;;5035076;28;20454;-73
2021/01/07 13:08:10;;;;;;;5.00;3.07;;;;;;;;;;5035720;28;20443;-73
2021/01/07 13:10:41;;;;;;;4.93;3.13;;;;;;;;;;5035984;28;20454;-73
2021/01/07 13:13:09;;;;;;;5.27;2.83;;;;;;;;;;5038061;28;21055;-73
2021/01/07 13:15:38;;;;;;;5.77;3.57;;;;;;;;;;5055593;28;20462;-72
2021/01/07 13:18:05;;;;;;;6.73;4.03;;;;;;;;;;5056508;28;20528;-73
2021/01/07 13:20:33;;;;;;;6.40;4.03;;;;;;;;;;5054903;28;20462;-73
2021/01/07 13:23:00;;;;;;;6.97;3.83;;;;;;;;;;5055706;28;20465;-72
2021/01/07 13:25:29;;;;;;;5.40;2.90;;;;;;;;;;5055873;28;20462;-72
2021/01/07 13:27:56;;;;;;;5.73;3.77;;;;;;;;;;5039954;28;20524;-72
2021/01/07 13:30:28;;;;;;;6.23;3.70;;;;;;;;;;5033895;28;20556;-72
2021/01/07 13:32:58;;;;;;;5.27;3.13;;;;;;;;;;5034443;28;20443;-72
2021/01/07 13:35:27;;;;;;;4.50;2.50;;;;;;;;;;5035096;28;20515;-72
2021/01/07 13:37:55;;;;;;;5.37;2.87;;;;;;;;;;5034910;28;20525;-71
2021/01/07 13:40:25;;;;;;;5.27;3.43;;;;;;;;;;5033173;28;20463;-71
2021/01/07 13:42:53;;;;;;;6.60;3.40;;;;;;;;;;5040679;28;20711;-71
2021/01/07 13:45:21;;;;;;;3.70;2.00;;;;;;;;;;5035402;28;20982;-72
2021/01/07 13:47:51;;;;;;;4.07;2.43;;;;;;;;;;5038908;28;20438;-73
2021/01/07 13:50:27;;;;;;;5.50;3.73;;;;;;;;;;5055013;28;20896;-72
2021/01/07 13:53:00;;;;;;;5.77;3.90;;;;;;;;;;5055549;28;20454;-73
2021/01/07 13:55:39;;;;;;;4.47;2.97;;;;;;;;;;5054649;28;20764;-72
2021/01/07 13:58:06;;;;;;;5.80;2.97;;;;;;;;;;5063814;28;20447;-72
2021/01/07 14:00:34;;;;;;;5.73;3.53;;;;;;;;;;5074078;28;20459;-72
2021/01/07 14:03:19;;;;;;;5.70;3.60;;;;;;;;;;5074164;28;20514;-72
2021/01/07 14:05:52;;;;;;;5.70;3.93;;;;;;;;;;5061272;28;20457;-73
2021/01/07 14:08:27;;;;;;;5.20;3.77;;;;;;;;;;5047311;28;20511;-74
2021/01/07 14:10:55;;;;;;;6.37;4.00;;;;;;;;;;5053370;28;20460;-73
2021/01/07 14:13:23;;;;;;;5.07;3.60;;;;;;;;;;5053286;28;20457;-73
2021/01/07 14:15:50;;;;;;;6.97;4.43;;;;;;;;;;5041170;28;20498;-73
2021/01/07 14:18:19;;;;;;;6.40;3.47;;;;;;;;;;5033885;28;20524;-71
2021/01/07 14:20:50;;;;;;;4.70;3.00;;;;;;;;;;5034306;28;20455;-73
2021/01/07 14:23:22;;;;;;;4.43;3.17;;;;;;;;;;5043870;28;20791;-73
2021/01/07 14:25:53;;;;;;;6.20;3.80;;;;;;;;;;5054286;28;20548;-72
2021/01/07 14:28:34;;;;;;;4.10;2.60;;;;;;;;;;5054888;28;20461;-73
2021/01/07 14:31:07;;;;;;;3.60;2.80;;;;;;;;;;5053454;28;20481;-73
2021/01/07 14:33:38;;;;;;;3.70;2.37;;;;;;;;;;5053070;28;20459;-73
2021/01/07 14:36:05;;;;;;;5.07;3.10;;;;;;;;;;5053535;28;20858;-73
2021/01/07 14:38:34;;;;;;;6.60;3.33;;;;;;;;;;5054846;28;20466;-72
2021/01/07 14:41:02;;;;;;;6.60;4.97;;;;;;;;;;5053006;28;20655;-73
2021/01/07 14:43:31;;;;;;;6.17;4.70;;;;;;;;;;5054207;28;20488;-73
2021/01/07 14:45:58;;;;;;;7.47;5.10;;;;;;;;;;5054331;28;20465;-73
2021/01/07 14:48:30;;;;;;;6.10;3.63;;;;;;;;;;5052876;28;20453;-73
2021/01/07 14:50:58;;;;;;;5.37;3.27;;;;;;;;;;5053185;28;20551;-72
2021/01/07 14:53:30;;;;;;;7.30;4.43;;;;;;;;;;5053116;28;20758;-73
2021/01/07 14:56:11;;;;;;;5.80;3.30;;;;;;;;;;5054743;28;20492;-73
2021/01/07 14:58:42;;;;;;;5.93;3.60;;;;;;;;;;5056324;28;20472;-74
2021/01/07 15:01:11;;;;;;;4.83;2.90;;;;;;;;;;5057941;28;20461;-74